Time;durP1;ratioP1;P1;durP2;ratioP2;P2;SDS_P1;SDS_P2;PMS_P1;PMS_P2;Temp;Humidity;BMP_temperature;BMP_pressure;BME280_temperature;BME280_humidity;BME280_pressure;Samples;Min_cycle;Max_cycle;Signal;HPM_P1;HPM_P2
2023/03/17 00:00:07;;;;;;;;;;;;;;;5.86;98.27;100291.00;5082503;28;20014;-77
2023/03/17 00:02:37;;;;;;;;;;;;;;;5.66;98.70;100301.88;5061649;28;20004;-75
2023/03/17 00:05:13;;;;;;;;;;;;;;;5.57;99.22;100303.28;5085721;28;20425;-75
2023/03/17 00:07:39;;;;;;;;;;;;;;;5.72;98.16;100296.25;5083279;28;20003;-76
2023/03/17 00:10:09;;;;;;;;;;;;;;;5.81;98.26;100306.19;5086660;28;20011;-76
2023/03/17 00:12:35;;;;;;;;;;;;;;;5.84;97.29;100308.59;5087401;28;19920;-76
2023/03/17 00:15:01;;;;;;;;;;;;;;;5.80;97.74;100312.34;5083281;28;19921;-75
2023/03/17 00:17:26;;;;;;;;;;;;;;;5.67;99.61;100314.03;5097058;28;20060;-76
2023/03/17 00:19:52;;;;;;;;;;;;;;;5.61;99.07;100319.63;5098855;28;19920;-76
2023/03/17 00:22:17;;;;;;;;;;;;;;;5.43;100.00;100312.88;5087193;28;20019;-76
2023/03/17 00:24:43;;;;;;;;;;;;;;;5.47;100.00;100309.16;5067407;28;19920;-75
2023/03/17 00:27:12;;;;;;;;;;;;;;;5.28;100.00;100312.88;5083485;28;19921;-75
2023/03/17 00:29:38;;;;;;;;;;;;;;;5.23;100.00;100317.53;5085556;28;19946;-75
2023/03/17 00:32:04;;;;;;;;;;;;;;;4.89;100.00;100325.66;5082764;28;20761;-75
2023/03/17 00:34:30;;;;;;;;;;;;;;;4.90;100.00;100322.94;5082890;28;19921;-75
2023/03/17 00:36:55;;;;;;;;;;;;;;;4.96;100.00;100321.75;5067803;28;19924;-75
2023/03/17 00:39:23;;;;;;;;;;;;;;;5.07;100.00;100324.59;5065738;28;20010;-75
2023/03/17 00:41:48;;;;;;;;;;;;;;;5.14;100.00;100323.31;5083874;28;20415;-74
2023/03/17 00:44:14;;;;;;;;;;;;;;;5.18;100.00;100322.22;5084855;28;19928;-74
2023/03/17 00:46:40;;;;;;;;;;;;;;;5.20;100.00;100320.31;5083580;28;19920;-74
2023/03/17 00:49:08;;;;;;;;;;;;;;;5.25;100.00;100315.66;5085880;28;19927;-74
2023/03/17 00:51:33;;;;;;;;;;;;;;;5.30;100.00;100321.47;5081785;28;20007;-74
2023/03/17 00:53:59;;;;;;;;;;;;;;;5.15;100.00;100321.53;5085626;28;20015;-73
2023/03/17 00:56:26;;;;;;;;;;;;;;;4.95;100.00;100320.06;5083085;28;19928;-76
2023/03/17 00:58:52;;;;;;;;;;;;;;;4.96;100.00;100319.13;5066524;28;19923;-76
2023/03/17 01:01:17;;;;;;;;;;;;;;;5.00;100.00;100318.06;5084125;28;19931;-77
2023/03/17 01:03:45;;;;;;;;;;;;;;;5.08;100.00;100317.59;5065345;28;20433;-78
2023/03/17 01:06:14;;;;;;;;;;;;;;;5.13;100.00;100319.00;5086275;28;19923;-77
2023/03/17 01:08:40;;;;;;;;;;;;;;;5.20;100.00;100309.84;5064146;28;20376;-78
2023/03/17 01:11:13;;;;;;;;;;;;;;;5.24;100.00;100306.13;5081583;28;19916;-78
2023/03/17 01:13:39;;;;;;;;;;;;;;;5.32;100.00;100303.91;5085250;28;20379;-78
2023/03/17 01:16:08;;;;;;;;;;;;;;;5.30;100.00;100300.53;5083161;28;19920;-77
2023/03/17 01:18:34;;;;;;;;;;;;;;;5.42;100.00;100306.00;5085909;28;19920;-78
2023/03/17 01:20:59;;;;;;;;;;;;;;;5.51;100.00;100305.41;5081882;28;19966;-75
2023/03/17 01:23:25;;;;;;;;;;;;;;;5.35;100.00;100301.13;5083966;28;19928;-78
2023/03/17 01:25:51;;;;;;;;;;;;;;;5.43;100.00;100299.78;5083195;28;19955;-78
2023/03/17 01:28:17;;;;;;;;;;;;;;;5.36;100.00;100310.63;5083436;28;19969;-78
2023/03/17 01:30:44;;;;;;;;;;;;;;;5.39;100.00;100314.84;5083731;28;20669;-79
2023/03/17 01:33:10;;;;;;;;;;;;;;;5.44;100.00;100311.94;5082019;28;19927;-78
2023/03/17 01:35:37;;;;;;;;;;;;;;;5.44;100.00;100312.78;5084527;28;19928;-78
2023/03/17 01:38:03;;;;;;;;;;;;;;;5.41;100.00;100309.53;5084547;28;20422;-77
2023/03/17 01:40:30;;;;;;;;;;;;;;;5.39;100.00;100309.63;5081366;28;19955;-76
2023/03/17 01:42:59;;;;;;;;;;;;;;;5.38;100.00;100307.09;5084333;28;19920;-76
2023/03/17 01:45:43;;;;;;;;;;;;;;;5.31;100.00;100304.84;5081873;28;20015;-76
2023/03/17 01:48:08;;;;;;;;;;;;;;;5.15;100.00;100311.91;5063407;28;19924;-76
2023/03/17 01:50:34;;;;;;;;;;;;;;;5.21;100.00;100308.94;5084409;28;19925;-76
2023/03/17 01:53:02;;;;;;;;;;;;;;;5.25;100.00;100318.28;5084080;28;19920;-76
2023/03/17 01:55:29;;;;;;;;;;;;;;;5.23;100.00;100320.16;5081215;28;20384;-75
2023/03/17 01:57:55;;;;;;;;;;;;;;;5.23;100.00;100314.94;5081872;28;19927;-76
2023/03/17 02:00:22;;;;;;;;;;;;;;;5.26;100.00;100319.97;5061248;28;20398;-76
2023/03/17 02:02:52;;;;;;;;;;;;;;;5.29;100.00;100314.56;5062542;28;19925;-76
2023/03/17 02:05:22;;;;;;;;;;;;;;;5.25;100.00;100323.50;5096697;28;19927;-75
2023/03/17 02:07:48;;;;;;;;;;;;;;;5.18;100.00;100318.75;5081774;28;19924;-76
2023/03/17 02:10:15;;;;;;;;;;;;;;;5.17;100.00;100314.44;5082819;28;19942;-76
2023/03/17 02:12:41;;;;;;;;;;;;;;;5.08;100.00;100326.28;5080314;28;19974;-76
2023/03/17 02:15:08;;;;;;;;;;;;;;;5.01;100.00;100319.72;5065565;28;19924;-75
2023/03/17 02:17:33;;;;;;;;;;;;;;;4.86;100.00;100320.59;5079890;28;20011;-76
2023/03/17 02:20:18;;;;;;;;;;;;;;;4.77;100.00;100315.91;5080146;28;19928;-76
2023/03/17 02:22:48;;;;;;;;;;;;;;;4.69;100.00;100318.13;5063022;28;20408;-76
2023/03/17 02:25:14;;;;;;;;;;;;;;;4.79;100.00;100319.25;5084043;28;19948;-77
2023/03/17 02:27:42;;;;;;;;;;;;;;;4.83;100.00;100323.41;5063991;28;19931;-77
2023/03/17 02:30:09;;;;;;;;;;;;;;;4.82;100.00;100316.50;5081038;28;19924;-75
2023/03/17 02:32:35;;;;;;;;;;;;;;;4.82;100.00;100319.09;5083369;28;19966;-75
2023/03/17 02:35:01;;;;;;;;;;;;;;;4.89;100.00;100320.41;5083173;28;19920;-76
2023/03/17 02:37:27;;;;;;;;;;;;;;;4.92;100.00;100328.09;5079587;28;20279;-75
2023/03/17 02:39:52;;;;;;;;;;;;;;;4.81;100.00;100317.41;5082161;28;19920;-75
2023/03/17 02:42:18;;;;;;;;;;;;;;;4.81;100.00;100314.81;5081310;28;19943;-76
2023/03/17 02:44:44;;;;;;;;;;;;;;;4.74;100.00;100313.47;5080223;28;19943;-76
2023/03/17 02:47:10;;;;;;;;;;;;;;;4.73;100.00;100319.63;5082632;28;20296;-75
2023/03/17 02:49:36;;;;;;;;;;;;;;;4.79;100.00;100308.81;5079449;28;19920;-76
2023/03/17 02:52:02;;;;;;;;;;;;;;;4.72;100.00;100312.69;5064930;28;19926;-75
2023/03/17 02:54:27;;;;;;;;;;;;;;;4.61;100.00;100309.84;5080186;28;19924;-75
2023/03/17 02:56:52;;;;;;;;;;;;;;;4.60;100.00;100302.94;5081962;28;20018;-75
2023/03/17 02:59:18;;;;;;;;;;;;;;;4.54;100.00;100320.66;5079852;28;19924;-75
2023/03/17 03:01:43;;;;;;;;;;;;;;;4.57;100.00;100313.56;5062331;28;19920;-76
2023/03/17 03:04:09;;;;;;;;;;;;;;;4.59;100.00;100317.81;5082352;28;19920;-74
2023/03/17 03:06:35;;;;;;;;;;;;;;;4.56;100.00;100323.19;5062098;28;19928;-74
2023/03/17 03:09:01;;;;;;;;;;;;;;;4.34;100.00;100317.47;5079526;28;19924;-75
2023/03/17 03:11:28;;;;;;;;;;;;;;;4.29;100.00;100320.34;5083630;28;20406;-76
2023/03/17 03:13:53;;;;;;;;;;;;;;;4.29;100.00;100315.13;5080492;28;19924;-76
2023/03/17 03:16:19;;;;;;;;;;;;;;;4.21;100.00;100319.91;5063923;28;19943;-74
2023/03/17 03:18:45;;;;;;;;;;;;;;;4.29;100.00;100328.19;5081932;28;20345;-74
2023/03/17 03:21:10;;;;;;;;;;;;;;;4.26;100.00;100328.34;5080649;28;20007;-76
2023/03/17 03:23:36;;;;;;;;;;;;;;;4.16;100.00;100324.56;5083228;28;19920;-75
2023/03/17 03:26:02;;;;;;;;;;;;;;;4.15;100.00;100338.53;5081272;28;19928;-77
2023/03/17 03:28:28;;;;;;;;;;;;;;;3.98;100.00;100328.16;5086357;28;19927;-78
2023/03/17 03:30:53;;;;;;;;;;;;;;;3.99;100.00;100332.47;5084499;28;19920;-78
2023/03/17 03:33:18;;;;;;;;;;;;;;;3.95;100.00;100325.69;5087573;28;19920;-77
2023/03/17 03:35:44;;;;;;;;;;;;;;;3.90;100.00;100319.88;5085267;28;19920;-79
2023/03/17 03:38:11;;;;;;;;;;;;;;;4.04;100.00;100326.06;5069493;28;19927;-78
2023/03/17 03:40:36;;;;;;;;;;;;;;;4.12;100.00;100325.66;5084493;28;20338;-76
2023/03/17 03:43:02;;;;;;;;;;;;;;;4.11;100.00;100318.75;5100609;28;19927;-78
2023/03/17 03:45:28;;;;;;;;;;;;;;;4.11;100.00;100323.97;5085144;28;19932;-78
2023/03/17 03:47:54;;;;;;;;;;;;;;;4.11;100.00;100321.34;5068511;28;19928;-77
2023/03/17 03:50:20;;;;;;;;;;;;;;;4.08;100.00;100321.50;5083354;28;20010;-77
2023/03/17 03:52:45;;;;;;;;;;;;;;;4.05;100.00;100321.69;5087200;28;19924;-77
2023/03/17 03:55:11;;;;;;;;;;;;;;;4.02;100.00;100325.28;5080990;28;19955;-77
2023/03/17 03:57:36;;;;;;;;;;;;;;;4.04;100.00;100322.59;5082523;28;19920;-77
2023/03/17 04:00:03;;;;;;;;;;;;;;;4.01;100.00;100325.38;5061588;28;19994;-78
2023/03/17 04:02:37;;;;;;;;;;;;;;;4.02;100.00;100327.06;5083629;28;19920;-77
2023/03/17 04:05:02;;;;;;;;;;;;;;;3.98;100.00;100328.16;5065087;28;19942;-77
2023/03/17 04:07:28;;;;;;;;;;;;;;;3.86;100.00;100336.66;5082701;28;19939;-78
2023/03/17 04:09:53;;;;;;;;;;;;;;;3.92;100.00;100341.53;5081240;28;19920;-78
2023/03/17 04:12:19;;;;;;;;;;;;;;;4.04;100.00;100333.06;5081244;28;19924;-78
2023/03/17 04:14:45;;;;;;;;;;;;;;;4.08;100.00;100331.94;5082583;28;20010;-78
2023/03/17 04:17:11;;;;;;;;;;;;;;;4.05;100.00;100332.97;5081274;28;20283;-77
2023/03/17 04:19:39;;;;;;;;;;;;;;;4.06;100.00;100334.63;5082282;28;20028;-77
2023/03/17 04:22:05;;;;;;;;;;;;;;;3.99;100.00;100337.69;5082478;28;19981;-77
2023/03/17 04:24:31;;;;;;;;;;;;;;;4.06;100.00;100344.28;5060386;28;20007;-77
2023/03/17 04:26:56;;;;;;;;;;;;;;;3.92;100.00;100342.38;5080790;28;19935;-76
2023/03/17 04:29:22;;;;;;;;;;;;;;;4.06;100.00;100336.44;5079009;28;19927;-75
2023/03/17 04:31:47;;;;;;;;;;;;;;;4.07;100.00;100343.31;5079448;28;19934;-74
2023/03/17 04:34:15;;;;;;;;;;;;;;;3.98;100.00;100351.66;5080817;28;19927;-75
2023/03/17 04:36:41;;;;;;;;;;;;;;;4.00;100.00;100344.59;5078060;28;19927;-75
2023/03/17 04:39:06;;;;;;;;;;;;;;;4.00;100.00;100344.59;5081530;28;20292;-74
2023/03/17 04:41:32;;;;;;;;;;;;;;;3.80;100.00;100347.41;5077612;28;19926;-74
2023/03/17 04:43:57;;;;;;;;;;;;;;;3.63;100.00;100351.75;5080953;28;19985;-76
2023/03/17 04:46:23;;;;;;;;;;;;;;;3.68;100.00;100347.13;5079815;28;19920;-78
2023/03/17 04:48:48;;;;;;;;;;;;;;;3.76;100.00;100351.97;5080520;28;19927;-79
2023/03/17 04:51:14;;;;;;;;;;;;;;;3.55;100.00;100337.41;5087335;28;20444;-77
2023/03/17 04:53:39;;;;;;;;;;;;;;;3.64;100.00;100344.78;5082084;28;19955;-76
2023/03/17 04:56:05;;;;;;;;;;;;;;;3.64;100.00;100337.78;5085542;28;19920;-77
2023/03/17 04:58:30;;;;;;;;;;;;;;;3.62;100.00;100344.84;5081937;28;19958;-77
2023/03/17 05:00:56;;;;;;;;;;;;;;;3.69;100.00;100341.00;5084457;28;19962;-77
2023/03/17 05:03:21;;;;;;;;;;;;;;;3.67;100.00;100342.84;5083076;28;20395;-77
2023/03/17 05:05:47;;;;;;;;;;;;;;;3.71;100.00;100339.13;5082698;28;20007;-76
2023/03/17 05:08:12;;;;;;;;;;;;;;;3.49;100.00;100338.56;5084356;28;19926;-76
2023/03/17 05:10:38;;;;;;;;;;;;;;;3.48;100.00;100347.31;5081488;28;19927;-76
2023/03/17 05:13:03;;;;;;;;;;;;;;;3.56;100.00;100345.16;5081323;28;19921;-77
2023/03/17 05:15:29;;;;;;;;;;;;;;;3.55;100.00;100338.25;5084546;28;19953;-77
2023/03/17 05:17:55;;;;;;;;;;;;;;;3.52;100.00;100348.00;5085895;28;19981;-78
2023/03/17 05:20:22;;;;;;;;;;;;;;;3.58;100.00;100352.91;5086427;28;19920;-76
2023/03/17 05:22:47;;;;;;;;;;;;;;;3.56;100.00;100352.16;5083110;28;20735;-76
2023/03/17 05:25:12;;;;;;;;;;;;;;;3.57;100.00;100351.22;5084282;28;19916;-76
2023/03/17 05:27:38;;;;;;;;;;;;;;;3.45;100.00;100347.47;5081411;28;19971;-75
2023/03/17 05:30:04;;;;;;;;;;;;;;;3.28;100.00;100355.31;5085090;28;19923;-75
2023/03/17 05:32:30;;;;;;;;;;;;;;;3.26;100.00;100351.94;5084010;28;19920;-75
2023/03/17 05:34:56;;;;;;;;;;;;;;;3.29;100.00;100351.81;5083721;28;20563;-75
2023/03/17 05:37:22;;;;;;;;;;;;;;;3.29;100.00;100362.22;5089364;28;20349;-76
2023/03/17 05:39:47;;;;;;;;;;;;;;;3.20;100.00;100358.31;5085303;28;19988;-77
2023/03/17 05:42:12;;;;;;;;;;;;;;;3.10;100.00;100357.09;5082423;28;19921;-76
2023/03/17 05:44:38;;;;;;;;;;;;;;;3.07;100.00;100358.97;5083826;28;19917;-75
2023/03/17 05:47:04;;;;;;;;;;;;;;;3.02;100.00;100353.16;5062880;28;19921;-74
2023/03/17 05:49:29;;;;;;;;;;;;;;;3.03;100.00;100355.69;5083895;28;19923;-76
2023/03/17 05:51:55;;;;;;;;;;;;;;;3.01;100.00;100356.69;5081886;28;20072;-76
2023/03/17 05:54:21;;;;;;;;;;;;;;;3.12;100.00;100363.06;5085663;28;19930;-78
2023/03/17 05:56:46;;;;;;;;;;;;;;;3.11;100.00;100363.16;5087121;28;19997;-76
2023/03/17 05:59:14;;;;;;;;;;;;;;;3.18;100.00;100359.31;5090245;28;20352;-79
2023/03/17 06:01:40;;;;;;;;;;;;;;;3.04;100.00;100357.38;5092615;28;19920;-76
2023/03/17 06:04:06;;;;;;;;;;;;;;;3.06;100.00;100362.53;5090672;28;19965;-75
2023/03/17 06:06:32;;;;;;;;;;;;;;;2.91;100.00;100358.06;5083432;28;20379;-77
2023/03/17 06:08:58;;;;;;;;;;;;;;;2.91;100.00;100361.50;5090264;28;20017;-77
2023/03/17 06:11:24;;;;;;;;;;;;;;;2.82;100.00;100360.22;5088443;28;20007;-76
2023/03/17 06:13:49;;;;;;;;;;;;;;;2.82;100.00;100368.03;5087515;28;19942;-75
2023/03/17 06:16:15;;;;;;;;;;;;;;;2.73;100.00;100367.63;5086025;28;19924;-77
2023/03/17 06:18:41;;;;;;;;;;;;;;;2.86;100.00;100364.34;5091390;28;19920;-76
2023/03/17 06:21:06;;;;;;;;;;;;;;;2.89;100.00;100369.41;5087033;28;20014;-81
2023/03/17 06:23:32;;;;;;;;;;;;;;;2.82;100.00;100368.03;5093290;28;19920;-77
2023/03/17 06:25:57;;;;;;;;;;;;;;;2.83;100.00;100369.69;5088819;28;20354;-75
2023/03/17 06:28:23;;;;;;;;;;;;;;;2.79;100.00;100367.31;5084978;28;19924;-74
2023/03/17 06:30:48;;;;;;;;;;;;;;;2.96;100.00;100369.09;5083371;28;19973;-75
2023/03/17 06:33:14;;;;;;;;;;;;;;;3.13;100.00;100371.72;5090640;28;19920;-76
2023/03/17 06:35:40;;;;;;;;;;;;;;;3.09;100.00;100372.81;5087142;28;19928;-74
2023/03/17 06:38:05;;;;;;;;;;;;;;;3.17;100.00;100374.13;5088746;28;19982;-74
2023/03/17 06:40:32;;;;;;;;;;;;;;;3.28;100.00;100370.97;5083391;28;19920;-77
2023/03/17 06:42:58;;;;;;;;;;;;;;;3.00;100.00;100374.13;5084580;28;19924;-76
2023/03/17 06:45:24;;;;;;;;;;;;;;;3.12;100.00;100375.28;5069807;28;19920;-74
2023/03/17 06:47:49;;;;;;;;;;;;;;;3.05;100.00;100379.09;5083977;28;20065;-74
2023/03/17 06:50:15;;;;;;;;;;;;;;;3.24;100.00;100379.88;5068916;28;19931;-74
2023/03/17 06:52:41;;;;;;;;;;;;;;;3.26;100.00;100378.03;5086792;28;20371;-77
2023/03/17 06:55:07;;;;;;;;;;;;;;;3.42;100.00;100378.94;5083344;28;20279;-73
2023/03/17 06:57:33;;;;;;;;;;;;;;;3.52;100.00;100387.16;5086602;28;19928;-74
2023/03/17 06:59:58;;;;;;;;;;;;;;;3.68;100.00;100375.84;5085157;28;19974;-74
2023/03/17 07:02:24;;;;;;;;;;;;;;;3.80;100.00;100386.56;5083645;28;19924;-74
2023/03/17 07:04:50;;;;;;;;;;;;;;;3.85;100.00;100382.78;5085230;28;20419;-73
2023/03/17 07:07:16;;;;;;;;;;;;;;;3.98;100.00;100388.22;5067115;28;20018;-74
2023/03/17 07:09:41;;;;;;;;;;;;;;;4.00;100.00;100382.00;5065338;28;19920;-75
2023/03/17 07:12:09;;;;;;;;;;;;;;;4.15;100.00;100398.63;5087311;28;19935;-74
2023/03/17 07:14:35;;;;;;;;;;;;;;;4.10;100.00;100391.03;5083197;28;19920;-74
2023/03/17 07:17:05;;;;;;;;;;;;;;;4.16;100.00;100396.84;5069503;28;20019;-74
2023/03/17 07:19:31;;;;;;;;;;;;;;;4.23;100.00;100390.38;5082608;28;19920;-75
2023/03/17 07:21:57;;;;;;;;;;;;;;;4.23;100.00;100398.22;5087652;28;19997;-77
2023/03/17 07:24:23;;;;;;;;;;;;;;;4.35;100.00;100403.63;5083336;28;20350;-76
2023/03/17 07:26:49;;;;;;;;;;;;;;;4.52;100.00;100406.16;5088105;28;20548;-75
2023/03/17 07:29:14;;;;;;;;;;;;;;;4.40;100.00;100401.59;5083737;28;19920;-75
2023/03/17 07:31:40;;;;;;;;;;;;;;;4.54;100.00;100409.53;5086324;28;19927;-75
2023/03/17 07:34:05;;;;;;;;;;;;;;;4.43;100.00;100406.66;5082489;28;19931;-74
2023/03/17 07:36:33;;;;;;;;;;;;;;;4.46;100.00;100411.72;5086999;28;19920;-75
2023/03/17 07:39:02;;;;;;;;;;;;;;;4.59;100.00;100417.13;5079715;28;19917;-75
2023/03/17 07:41:28;;;;;;;;;;;;;;;4.77;100.00;100410.88;5067981;28;19983;-76
2023/03/17 07:43:53;;;;;;;;;;;;;;;4.89;100.00;100406.72;5087266;28;20400;-75
2023/03/17 07:46:19;;;;;;;;;;;;;;;5.02;100.00;100404.25;5086696;28;20316;-75
2023/03/17 07:48:45;;;;;;;;;;;;;;;5.07;100.00;100410.91;5083729;28;19996;-74
2023/03/17 07:51:14;;;;;;;;;;;;;;;5.21;100.00;100410.97;5083573;28;19923;-76
2023/03/17 07:53:40;;;;;;;;;;;;;;;5.43;100.00;100414.97;5086245;28;19999;-75
2023/03/17 07:56:06;;;;;;;;;;;;;;;5.64;100.00;100406.72;5083444;28;20280;-74
2023/03/17 07:58:32;;;;;;;;;;;;;;;5.67;100.00;100408.28;5062784;28;20285;-74
2023/03/17 08:00:57;;;;;;;;;;;;;;;5.81;100.00;100405.69;5087207;28;19946;-75
2023/03/17 08:03:23;;;;;;;;;;;;;;;5.95;100.00;100408.34;5080011;28;20314;-73
2023/03/17 08:05:54;;;;;;;;;;;;;;;6.10;100.00;100407.44;5083140;28;19932;-73
2023/03/17 08:08:20;;;;;;;;;;;;;;;6.26;100.00;100416.97;5085513;28;20340;-73
2023/03/17 08:10:46;;;;;;;;;;;;;;;6.37;100.00;100414.50;5086113;28;19978;-74
2023/03/17 08:13:12;;;;;;;;;;;;;;;6.39;100.00;100412.66;5085795;28;19939;-75
2023/03/17 08:15:37;;;;;;;;;;;;;;;6.43;100.00;100411.50;5086680;28;19920;-75
2023/03/17 08:18:03;;;;;;;;;;;;;;;6.50;100.00;100415.44;5081693;28;20057;-74
2023/03/17 08:20:28;;;;;;;;;;;;;;;6.61;100.00;100405.13;5085487;28;19927;-75
2023/03/17 08:22:54;;;;;;;;;;;;;;;6.71;100.00;100405.41;5082204;28;20039;-73
2023/03/17 08:25:20;;;;;;;;;;;;;;;6.77;100.00;100403.22;5085292;28;19920;-71
2023/03/17 08:27:46;;;;;;;;;;;;;;;6.85;100.00;100403.56;5084908;28;19926;-73
2023/03/17 08:30:11;;;;;;;;;;;;;;;6.90;100.00;100398.84;5086891;28;19924;-74
2023/03/17 08:32:37;;;;;;;;;;;;;;;7.03;100.00;100403.31;5066775;28;19927;-73
2023/03/17 08:35:05;;;;;;;;;;;;;;;7.16;100.00;100399.78;5086471;28;19959;-73
2023/03/17 08:37:31;;;;;;;;;;;;;;;7.31;98.64;100397.94;5089129;28;19920;-74
2023/03/17 08:39:56;;;;;;;;;;;;;;;7.43;95.92;100397.13;5084301;28;19920;-73
2023/03/17 08:42:22;;;;;;;;;;;;;;;7.57;92.28;100394.41;5089390;28;19927;-75
2023/03/17 08:44:47;;;;;;;;;;;;;;;7.71;91.11;100391.72;5085937;28;19997;-73
2023/03/17 08:47:13;;;;;;;;;;;;;;;7.75;90.88;100389.69;5090298;28;19966;-73
2023/03/17 08:49:38;;;;;;;;;;;;;;;7.95;90.75;100383.91;5086013;28;19950;-75
2023/03/17 08:52:04;;;;;;;;;;;;;;;8.03;90.54;100392.13;5090649;28;19920;-75
2023/03/17 08:54:29;;;;;;;;;;;;;;;8.14;90.32;100378.22;5086413;28;19968;-76
2023/03/17 08:56:56;;;;;;;;;;;;;;;8.16;88.53;100385.06;5071556;28;19920;-75
2023/03/17 08:59:22;;;;;;;;;;;;;;;8.22;86.76;100389.03;5086274;28;20261;-75
2023/03/17 09:01:47;;;;;;;;;;;;;;;8.41;86.94;100386.84;5091651;28;19930;-73
2023/03/17 09:04:14;;;;;;;;;;;;;;;8.57;86.37;100387.41;5087090;28;19927;-74
2023/03/17 09:06:40;;;;;;;;;;;;;;;8.66;85.28;100385.91;5084987;28;19920;-73
2023/03/17 09:09:06;;;;;;;;;;;;;;;8.63;83.93;100380.88;5089239;28;19943;-76
2023/03/17 09:11:32;;;;;;;;;;;;;;;8.83;83.74;100387.34;5084740;28;19920;-75
2023/03/17 09:13:58;;;;;;;;;;;;;;;8.94;82.46;100380.34;5087430;28;19932;-75
2023/03/17 09:16:24;;;;;;;;;;;;;;;9.08;82.45;100379.31;5085265;28;19963;-74
2023/03/17 09:18:50;;;;;;;;;;;;;;;9.05;82.83;100376.91;5087071;28;20003;-74
2023/03/17 09:21:16;;;;;;;;;;;;;;;9.06;82.09;100373.34;5068415;28;20058;-74
2023/03/17 09:23:42;;;;;;;;;;;;;;;9.18;81.59;100375.06;5088407;28;19931;-75
2023/03/17 09:26:09;;;;;;;;;;;;;;;9.19;80.98;100363.56;5085681;28;19928;-75
2023/03/17 09:28:34;;;;;;;;;;;;;;;9.16;79.45;100369.06;5088366;28;19956;-75
2023/03/17 09:31:01;;;;;;;;;;;;;;;9.24;79.11;100369.34;5086009;28;19946;-75
2023/03/17 09:33:26;;;;;;;;;;;;;;;9.32;76.47;100366.94;5084703;28;20439;-74
2023/03/17 09:35:53;;;;;;;;;;;;;;;9.41;74.41;100366.28;5086910;28;20070;-75
2023/03/17 09:38:19;;;;;;;;;;;;;;;9.46;74.08;100355.38;5086743;28;19963;-74
2023/03/17 09:40:51;;;;;;;;;;;;;;;9.55;73.31;100354.69;5084944;28;19986;-74
2023/03/17 09:43:17;;;;;;;;;;;;;;;9.67;72.08;100353.75;5087376;28;20276;-75
2023/03/17 09:45:43;;;;;;;;;;;;;;;9.77;69.81;100369.72;5085327;28;19931;-73
2023/03/17 09:48:08;;;;;;;;;;;;;;;9.79;67.70;100358.06;5087484;28;20025;-75
2023/03/17 09:50:55;;;;;;;;;;;;;;;9.89;67.51;100358.22;5081148;28;20380;-73
2023/03/17 09:53:23;;;;;;;;;;;;;;;9.94;66.19;100363.13;5085863;28;19920;-75
2023/03/17 09:55:53;;;;;;;;;;;;;;;10.01;66.77;100361.69;5086622;28;20362;-76
2023/03/17 09:58:23;;;;;;;;;;;;;;;10.09;65.56;100365.41;5086406;28;19924;-75
2023/03/17 10:00:48;;;;;;;;;;;;;;;10.24;66.09;100364.25;5086195;28;19928;-75
2023/03/17 10:03:14;;;;;;;;;;;;;;;10.30;64.01;100362.09;5085572;28;19920;-75
2023/03/17 10:05:39;;;;;;;;;;;;;;;10.34;63.96;100348.53;5087281;28;19920;-74
2023/03/17 10:08:05;;;;;;;;;;;;;;;10.36;61.83;100351.03;5084051;28;19928;-75
2023/03/17 10:10:41;;;;;;;;;;;;;;;10.43;61.98;100352.19;5088526;28;20398;-75
2023/03/17 10:13:26;;;;;;;;;;;;;;;10.51;61.14;100349.81;5084272;28;19927;-74
2023/03/17 10:16:02;;;;;;;;;;;;;;;10.57;59.76;100338.75;5084659;28;19920;-74
2023/03/17 10:18:36;;;;;;;;;;;;;;;10.64;59.60;100339.94;5068859;28;19931;-75
2023/03/17 10:21:05;;;;;;;;;;;;;;;10.68;59.42;100336.09;5084042;28;20287;-74
2023/03/17 10:23:32;;;;;;;;;;;;;;;10.76;59.36;100327.56;5088333;28;20264;-74
2023/03/17 10:26:16;;;;;;;;;;;;;;;10.84;59.69;100325.94;5084065;28;19928;-74
2023/03/17 10:28:41;;;;;;;;;;;;;;;10.94;59.24;100332.16;5080217;28;20314;-75
2023/03/17 10:31:14;;;;;;;;;;;;;;;11.00;60.64;100329.03;5085583;28;19931;-75
2023/03/17 10:33:39;;;;;;;;;;;;;;;11.08;60.55;100318.63;5086304;28;19927;-76
2023/03/17 10:36:08;;;;;;;;;;;;;;;11.13;59.73;100317.44;5083810;28;20007;-74
2023/03/17 10:38:35;;;;;;;;;;;;;;;11.09;58.91;100316.84;5080468;28;20335;-74
2023/03/17 10:41:05;;;;;;;;;;;;;;;11.09;58.21;100314.19;5087115;28;20312;-74
2023/03/17 10:43:37;;;;;;;;;;;;;;;11.12;58.14;100318.41;5084021;28;20264;-75
2023/03/17 10:46:04;;;;;;;;;;;;;;;11.21;58.78;100318.47;5087477;28;20653;-73
2023/03/17 10:48:34;;;;;;;;;;;;;;;11.27;59.17;100311.81;5063420;28;19999;-73
2023/03/17 10:51:05;;;;;;;;;;;;;;;11.32;60.02;100309.63;5084964;28;19927;-75
2023/03/17 10:53:36;;;;;;;;;;;;;;;11.32;59.33;100310.47;5080487;28;19927;-75
2023/03/17 10:56:09;;;;;;;;;;;;;;;11.34;58.18;100303.25;5082908;28;20292;-75
2023/03/17 10:58:40;;;;;;;;;;;;;;;11.38;58.37;100303.81;5084924;28;19920;-76
2023/03/17 11:01:09;;;;;;;;;;;;;;;11.47;58.85;100298.63;5082776;28;19927;-74
2023/03/17 11:03:37;;;;;;;;;;;;;;;11.55;57.43;100295.31;5084960;28;20341;-76
2023/03/17 11:06:11;;;;;;;;;;;;;;;11.52;55.21;100295.59;5065410;28;20023;-75
2023/03/17 11:08:41;;;;;;;;;;;;;;;11.61;53.86;100284.22;5086058;28;19924;-73
2023/03/17 11:11:09;;;;;;;;;;;;;;;11.66;48.65;100287.31;5082999;28;19943;-74
2023/03/17 11:13:35;;;;;;;;;;;;;;;11.80;48.08;100284.34;5081721;28;19920;-75
2023/03/17 11:16:06;;;;;;;;;;;;;;;11.88;43.32;100286.31;5086635;28;19935;-74
2023/03/17 11:18:36;;;;;;;;;;;;;;;11.86;42.81;100277.69;5086106;28;19920;-75
2023/03/17 11:21:08;;;;;;;;;;;;;;;11.92;43.94;100276.31;5083452;28;19927;-74
2023/03/17 11:23:51;;;;;;;;;;;;;;;11.99;44.08;100275.66;5084880;28;19924;-74
2023/03/17 11:26:35;;;;;;;;;;;;;;;12.10;44.05;100264.13;5078312;28;19931;-73
2023/03/17 11:29:00;;;;;;;;;;;;;;;12.16;42.41;100263.56;5085998;28;19930;-74
2023/03/17 11:31:29;;;;;;;;;;;;;;;12.23;42.40;100264.72;5088455;28;20378;-73
2023/03/17 11:34:01;;;;;;;;;;;;;;;12.28;40.76;100262.50;5084693;28;19997;-75
2023/03/17 11:36:33;;;;;;;;;;;;;;;12.29;39.82;100259.72;5067868;28;19928;-75
2023/03/17 11:39:09;;;;;;;;;;;;;;;12.34;39.27;100261.94;5069559;28;20360;-74
2023/03/17 11:41:40;;;;;;;;;;;;;;;12.38;39.63;100258.03;5083760;28;20382;-73
2023/03/17 11:44:06;;;;;;;;;;;;;;;12.46;39.50;100254.72;5083232;28;19924;-74
2023/03/17 11:46:40;;;;;;;;;;;;;;;12.52;38.73;100246.22;5083492;28;19920;-73
2023/03/17 11:49:11;;;;;;;;;;;;;;;12.59;40.01;100245.53;5083280;28;19917;-74
2023/03/17 11:52:02;;;;;;;;;;;;;;;12.71;41.03;100241.78;5065137;28;19948;-75
2023/03/17 11:54:36;;;;;;;;;;;;;;;12.91;41.72;100233.78;5084426;28;19964;-75
2023/03/17 11:57:03;;;;;;;;;;;;;;;12.98;40.66;100232.25;5083337;28;19921;-74
2023/03/17 11:59:41;;;;;;;;;;;;;;;13.01;40.75;100232.00;5088443;28;19920;-74
2023/03/17 12:02:06;;;;;;;;;;;;;;;13.13;40.73;100230.06;5073267;28;20358;-74
2023/03/17 12:04:36;;;;;;;;;;;;;;;13.22;39.49;100232.66;5091131;28;20338;-74
2023/03/17 12:07:07;;;;;;;;;;;;;;;13.36;38.48;100229.56;5087926;28;20560;-75
2023/03/17 12:09:41;;;;;;;;;;;;;;;13.55;39.01;100222.53;5071084;28;20380;-74
2023/03/17 12:12:08;;;;;;;;;;;;;;;13.68;37.80;100215.91;5088170;28;20355;-77
2023/03/17 12:14:37;;;;;;;;;;;;;;;13.71;36.90;100212.13;5086047;28;19970;-74
2023/03/17 12:17:22;;;;;;;;;;;;;;;13.77;37.54;100208.91;5094290;28;19920;-75
2023/03/17 12:19:57;;;;;;;;;;;;;;;13.91;37.16;100208.38;5087505;28;19932;-75
2023/03/17 12:22:25;;;;;;;;;;;;;;;13.90;37.08;100209.41;5090344;28;19924;-75
2023/03/17 12:25:06;;;;;;;;;;;;;;;13.88;36.39;100208.69;5086482;28;19923;-75
2023/03/17 12:27:35;;;;;;;;;;;;;;;13.85;36.36;100198.38;5087014;28;20011;-75
2023/03/17 12:30:16;;;;;;;;;;;;;;;13.90;36.19;100198.78;5090306;28;19928;-76
2023/03/17 12:33:20;;;;;;;;;;;;;;;13.84;35.73;100204.69;5086501;28;19959;-75
2023/03/17 12:35:45;;;;;;;;;;;;;;;13.94;36.16;100202.78;5058957;28;19920;-74
2023/03/17 12:38:20;;;;;;;;;;;;;;;14.10;36.16;100191.53;5046467;28;19928;-75